sensor_id;sensor_type;location;lat;lon;timestamp;P1;durP1;ratioP1;P2;durP2;ratioP2
9900;SDS011;4989;48.772;9.154;2023-07-20T00:01:02;407.70;;;368.07;;
9900;SDS011;4989;48.772;9.154;2023-07-20T00:06:05;404.77;;;364.80;;
9900;SDS011;4989;48.772;9.154;2023-07-20T00:11:07;417.90;;;377.43;;
9900;SDS011;4989;48.772;9.154;2023-07-20T00:16:10;429.07;;;389.03;;
9900;SDS011;4989;48.772;9.154;2023-07-20T00:21:13;432.33;;;392.27;;
9900;SDS011;4989;48.772;9.154;2023-07-20T00:26:16;453.53;;;412.90;;
9900;SDS011;4989;48.772;9.154;2023-07-20T00:31:20;373.60;;;336.30;;
9900;SDS011;4989;48.772;9.154;2023-07-20T00:36:22;387.50;;;350.07;;
9900;SDS011;4989;48.772;9.154;2023-07-20T00:41:25;382.40;;;345.10;;
9900;SDS011;4989;48.772;9.154;2023-07-20T00:46:31;410.40;;;371.83;;
9900;SDS011;4989;48.772;9.154;2023-07-20T00:51:34;456.00;;;415.57;;
9900;SDS011;4989;48.772;9.154;2023-07-20T00:56:37;443.77;;;403.70;;
9900;SDS011;4989;48.772;9.154;2023-07-20T01:01:40;446.43;;;405.90;;
9900;SDS011;4989;48.772;9.154;2023-07-20T01:17:28;341.83;;;305.03;;
9900;SDS011;4989;48.772;9.154;2023-07-20T01:22:42;373.20;;;335.17;;
9900;SDS011;4989;48.772;9.154;2023-07-20T01:33:37;412.73;;;372.93;;
9900;SDS011;4989;48.772;9.154;2023-07-20T01:38:44;402.30;;;362.67;;
9900;SDS011;4989;48.772;9.154;2023-07-20T01:43:48;339.90;;;302.87;;
9900;SDS011;4989;48.772;9.154;2023-07-20T01:48:51;323.43;;;281.60;;
9900;SDS011;4989;48.772;9.154;2023-07-20T01:53:54;326.37;;;284.87;;
9900;SDS011;4989;48.772;9.154;2023-07-20T01:58:57;322.23;;;277.43;;
9900;SDS011;4989;48.772;9.154;2023-07-20T02:04:00;347.17;;;309.73;;
9900;SDS011;4989;48.772;9.154;2023-07-20T02:09:03;387.30;;;348.67;;
9900;SDS011;4989;48.772;9.154;2023-07-20T02:14:05;419.10;;;379.70;;
9900;SDS011;4989;48.772;9.154;2023-07-20T02:19:08;439.53;;;399.47;;
9900;SDS011;4989;48.772;9.154;2023-07-20T02:24:11;429.03;;;389.13;;
9900;SDS011;4989;48.772;9.154;2023-07-20T02:29:14;432.77;;;392.07;;
9900;SDS011;4989;48.772;9.154;2023-07-20T02:34:17;397.97;;;359.37;;
9900;SDS011;4989;48.772;9.154;2023-07-20T02:39:20;334.43;;;298.37;;
9900;SDS011;4989;48.772;9.154;2023-07-20T02:44:23;342.67;;;306.17;;
9900;SDS011;4989;48.772;9.154;2023-07-20T02:49:26;358.97;;;322.17;;
9900;SDS011;4989;48.772;9.154;2023-07-20T02:54:29;367.27;;;330.83;;
9900;SDS011;4989;48.772;9.154;2023-07-20T02:59:32;439.80;;;400.63;;
9900;SDS011;4989;48.772;9.154;2023-07-20T03:04:35;465.07;;;424.80;;
9900;SDS011;4989;48.772;9.154;2023-07-20T03:09:38;451.63;;;411.23;;
9900;SDS011;4989;48.772;9.154;2023-07-20T03:14:42;420.93;;;381.00;;
9900;SDS011;4989;48.772;9.154;2023-07-20T03:19:45;400.70;;;360.67;;
9900;SDS011;4989;48.772;9.154;2023-07-20T03:24:47;364.77;;;326.70;;
9900;SDS011;4989;48.772;9.154;2023-07-20T03:29:50;320.40;;;269.10;;
9900;SDS011;4989;48.772;9.154;2023-07-20T03:34:53;320.53;;;284.97;;
9900;SDS011;4989;48.772;9.154;2023-07-20T03:39:55;328.63;;;292.47;;
9900;SDS011;4989;48.772;9.154;2023-07-20T03:44:58;340.40;;;304.40;;
9900;SDS011;4989;48.772;9.154;2023-07-20T03:50:01;409.27;;;370.57;;
9900;SDS011;4989;48.772;9.154;2023-07-20T03:55:05;447.53;;;407.63;;
9900;SDS011;4989;48.772;9.154;2023-07-20T04:00:08;453.17;;;413.27;;
9900;SDS011;4989;48.772;9.154;2023-07-20T04:05:14;485.57;;;443.53;;
9900;SDS011;4989;48.772;9.154;2023-07-20T04:10:17;442.93;;;403.47;;
9900;SDS011;4989;48.772;9.154;2023-07-20T04:15:20;384.37;;;347.20;;
9900;SDS011;4989;48.772;9.154;2023-07-20T04:20:23;391.73;;;353.40;;
9900;SDS011;4989;48.772;9.154;2023-07-20T04:25:26;388.63;;;351.73;;
9900;SDS011;4989;48.772;9.154;2023-07-20T04:30:29;396.10;;;358.97;;
9900;SDS011;4989;48.772;9.154;2023-07-20T04:41:04;453.70;;;412.60;;
9900;SDS011;4989;48.772;9.154;2023-07-20T04:46:11;467.30;;;426.47;;
9900;SDS011;4989;48.772;9.154;2023-07-20T04:51:16;481.57;;;440.67;;
9900;SDS011;4989;48.772;9.154;2023-07-20T04:56:24;394.40;;;357.33;;
9900;SDS011;4989;48.772;9.154;2023-07-20T05:01:29;367.07;;;330.60;;
9900;SDS011;4989;48.772;9.154;2023-07-20T05:06:31;400.30;;;360.87;;
9900;SDS011;4989;48.772;9.154;2023-07-20T05:11:34;410.73;;;371.37;;
9900;SDS011;4989;48.772;9.154;2023-07-20T05:16:37;406.13;;;366.73;;
9900;SDS011;4989;48.772;9.154;2023-07-20T05:21:41;418.87;;;378.67;;
9900;SDS011;4989;48.772;9.154;2023-07-20T05:26:44;401.60;;;361.77;;
9900;SDS011;4989;48.772;9.154;2023-07-20T05:31:46;405.73;;;366.27;;
9900;SDS011;4989;48.772;9.154;2023-07-20T05:36:49;341.50;;;304.90;;
9900;SDS011;4989;48.772;9.154;2023-07-20T05:41:52;329.13;;;293.23;;
9900;SDS011;4989;48.772;9.154;2023-07-20T05:46:54;336.63;;;300.77;;
9900;SDS011;4989;48.772;9.154;2023-07-20T05:51:59;326.57;;;290.77;;
9900;SDS011;4989;48.772;9.154;2023-07-20T05:57:02;382.60;;;344.30;;
9900;SDS011;4989;48.772;9.154;2023-07-20T06:02:05;388.47;;;349.73;;
9900;SDS011;4989;48.772;9.154;2023-07-20T06:07:09;405.93;;;366.10;;
9900;SDS011;4989;48.772;9.154;2023-07-20T06:12:12;390.90;;;351.90;;
9900;SDS011;4989;48.772;9.154;2023-07-20T06:17:14;408.57;;;369.10;;
9900;SDS011;4989;48.772;9.154;2023-07-20T06:22:17;372.97;;;335.03;;
9900;SDS011;4989;48.772;9.154;2023-07-20T06:27:20;331.10;;;287.90;;
9900;SDS011;4989;48.772;9.154;2023-07-20T06:32:22;332.40;;;282.17;;
9900;SDS011;4989;48.772;9.154;2023-07-20T06:37:25;322.90;;;275.60;;
9900;SDS011;4989;48.772;9.154;2023-07-20T06:42:27;315.97;;;259.00;;
9900;SDS011;4989;48.772;9.154;2023-07-20T06:47:51;316.03;;;265.03;;
9900;SDS011;4989;48.772;9.154;2023-07-20T06:52:54;316.93;;;270.23;;
9900;SDS011;4989;48.772;9.154;2023-07-20T06:57:59;322.73;;;283.83;;
9900;SDS011;4989;48.772;9.154;2023-07-20T07:03:02;363.43;;;325.97;;
9900;SDS011;4989;48.772;9.154;2023-07-20T07:08:05;410.40;;;370.70;;
9900;SDS011;4989;48.772;9.154;2023-07-20T07:13:08;412.30;;;373.30;;
9900;SDS011;4989;48.772;9.154;2023-07-20T07:18:13;446.00;;;406.07;;
9900;SDS011;4989;48.772;9.154;2023-07-20T07:23:22;370.97;;;334.13;;
9900;SDS011;4989;48.772;9.154;2023-07-20T07:28:25;379.33;;;342.63;;
9900;SDS011;4989;48.772;9.154;2023-07-20T07:33:30;376.43;;;339.63;;
9900;SDS011;4989;48.772;9.154;2023-07-20T07:38:35;440.60;;;401.17;;
9900;SDS011;4989;48.772;9.154;2023-07-20T07:44:02;384.37;;;346.77;;
9900;SDS011;4989;48.772;9.154;2023-07-20T07:49:07;423.27;;;382.50;;
9900;SDS011;4989;48.772;9.154;2023-07-20T07:54:10;449.90;;;410.03;;
9900;SDS011;4989;48.772;9.154;2023-07-20T07:59:13;461.67;;;421.27;;
9900;SDS011;4989;48.772;9.154;2023-07-20T08:04:15;493.40;;;452.20;;
9900;SDS011;4989;48.772;9.154;2023-07-20T08:09:18;454.83;;;415.23;;
9900;SDS011;4989;48.772;9.154;2023-07-20T08:14:28;386.83;;;350.23;;
9900;SDS011;4989;48.772;9.154;2023-07-20T08:19:31;418.33;;;380.53;;
9900;SDS011;4989;48.772;9.154;2023-07-20T08:24:41;474.73;;;434.30;;
9900;SDS011;4989;48.772;9.154;2023-07-20T08:29:47;476.27;;;436.13;;
9900;SDS011;4989;48.772;9.154;2023-07-20T08:34:52;408.40;;;371.43;;
9900;SDS011;4989;48.772;9.154;2023-07-20T08:40:07;494.83;;;454.17;;
9900;SDS011;4989;48.772;9.154;2023-07-20T08:45:13;535.10;;;493.77;;
9900;SDS011;4989;48.772;9.154;2023-07-20T08:50:18;494.07;;;454.00;;
9900;SDS011;4989;48.772;9.154;2023-07-20T08:55:25;458.47;;;420.47;;
9900;SDS011;4989;48.772;9.154;2023-07-20T09:00:33;500.23;;;460.27;;
9900;SDS011;4989;48.772;9.154;2023-07-20T09:18:11;560.93;;;519.23;;
9900;SDS011;4989;48.772;9.154;2023-07-20T09:23:15;572.53;;;530.83;;
9900;SDS011;4989;48.772;9.154;2023-07-20T09:28:19;521.67;;;481.93;;
9900;SDS011;4989;48.772;9.154;2023-07-20T09:33:24;508.80;;;470.03;;
9900;SDS011;4989;48.772;9.154;2023-07-20T09:38:38;584.23;;;542.03;;
9900;SDS011;4989;48.772;9.154;2023-07-20T09:49:40;593.73;;;551.23;;
9900;SDS011;4989;48.772;9.154;2023-07-20T09:55:11;577.87;;;536.33;;
9900;SDS011;4989;48.772;9.154;2023-07-20T10:00:38;590.17;;;547.73;;
9900;SDS011;4989;48.772;9.154;2023-07-20T10:05:48;600.27;;;557.83;;
9900;SDS011;4989;48.772;9.154;2023-07-20T10:10:59;529.67;;;490.37;;
9900;SDS011;4989;48.772;9.154;2023-07-20T10:16:06;580.17;;;538.47;;
9900;SDS011;4989;48.772;9.154;2023-07-20T10:21:12;593.40;;;550.97;;
9900;SDS011;4989;48.772;9.154;2023-07-20T10:26:30;560.87;;;520.97;;
9900;SDS011;4989;48.772;9.154;2023-07-20T10:31:48;624.50;;;581.67;;
9900;SDS011;4989;48.772;9.154;2023-07-20T10:36:54;552.30;;;512.83;;
9900;SDS011;4989;48.772;9.154;2023-07-20T10:42:00;566.00;;;526.20;;
9900;SDS011;4989;48.772;9.154;2023-07-20T10:47:10;646.30;;;602.83;;
9900;SDS011;4989;48.772;9.154;2023-07-20T10:52:16;650.73;;;607.30;;
9900;SDS011;4989;48.772;9.154;2023-07-20T10:57:28;623.67;;;581.63;;
9900;SDS011;4989;48.772;9.154;2023-07-20T11:02:41;645.77;;;602.87;;
9900;SDS011;4989;48.772;9.154;2023-07-20T11:07:50;585.20;;;545.17;;
9900;SDS011;4989;48.772;9.154;2023-07-20T11:18:26;581.27;;;541.23;;
9900;SDS011;4989;48.772;9.154;2023-07-20T11:34:46;654.77;;;611.07;;
9900;SDS011;4989;48.772;9.154;2023-07-20T11:39:55;611.50;;;570.57;;
9900;SDS011;4989;48.772;9.154;2023-07-20T11:44:58;604.47;;;563.47;;
9900;SDS011;4989;48.772;9.154;2023-07-20T11:50:03;639.70;;;596.60;;
9900;SDS011;4989;48.772;9.154;2023-07-20T11:55:09;662.23;;;618.70;;
9900;SDS011;4989;48.772;9.154;2023-07-20T12:00:16;695.77;;;651.27;;
9900;SDS011;4989;48.772;9.154;2023-07-20T12:05:30;625.33;;;584.17;;
9900;SDS011;4989;48.772;9.154;2023-07-20T12:10:32;667.77;;;624.73;;
9900;SDS011;4989;48.772;9.154;2023-07-20T12:15:36;682.47;;;638.17;;
9900;SDS011;4989;48.772;9.154;2023-07-20T12:20:41;677.60;;;633.50;;
9900;SDS011;4989;48.772;9.154;2023-07-20T12:25:46;695.57;;;650.93;;
9900;SDS011;4989;48.772;9.154;2023-07-20T12:30:52;620.47;;;579.20;;
9900;SDS011;4989;48.772;9.154;2023-07-20T12:36:00;616.70;;;575.47;;
9900;SDS011;4989;48.772;9.154;2023-07-20T12:41:09;661.93;;;618.23;;
9900;SDS011;4989;48.772;9.154;2023-07-20T12:46:16;679.27;;;634.60;;
9900;SDS011;4989;48.772;9.154;2023-07-20T12:51:22;597.17;;;556.57;;
9900;SDS011;4989;48.772;9.154;2023-07-20T12:56:26;595.83;;;555.27;;
9900;SDS011;4989;48.772;9.154;2023-07-20T13:01:31;619.63;;;578.00;;
9900;SDS011;4989;48.772;9.154;2023-07-20T13:06:36;654.80;;;610.13;;
9900;SDS011;4989;48.772;9.154;2023-07-20T13:11:44;653.33;;;609.63;;
9900;SDS011;4989;48.772;9.154;2023-07-20T13:16:50;624.13;;;581.87;;
9900;SDS011;4989;48.772;9.154;2023-07-20T13:21:53;596.40;;;555.73;;
9900;SDS011;4989;48.772;9.154;2023-07-20T13:26:57;616.57;;;575.60;;
9900;SDS011;4989;48.772;9.154;2023-07-20T13:32:04;642.10;;;599.80;;
9900;SDS011;4989;48.772;9.154;2023-07-20T13:37:11;678.80;;;634.70;;
9900;SDS011;4989;48.772;9.154;2023-07-20T13:42:17;678.93;;;635.00;;
9900;SDS011;4989;48.772;9.154;2023-07-20T13:47:26;603.70;;;563.17;;
9900;SDS011;4989;48.772;9.154;2023-07-20T13:52:31;626.73;;;585.37;;
9900;SDS011;4989;48.772;9.154;2023-07-20T13:57:36;679.00;;;635.00;;
9900;SDS011;4989;48.772;9.154;2023-07-20T14:02:49;664.13;;;621.37;;
9900;SDS011;4989;48.772;9.154;2023-07-20T14:07:57;624.30;;;583.17;;
9900;SDS011;4989;48.772;9.154;2023-07-20T14:13:18;696.73;;;651.93;;
9900;SDS011;4989;48.772;9.154;2023-07-20T14:18:28;627.13;;;585.63;;
9900;SDS011;4989;48.772;9.154;2023-07-20T14:23:35;625.07;;;581.77;;
9900;SDS011;4989;48.772;9.154;2023-07-20T14:28:38;640.47;;;595.40;;
9900;SDS011;4989;48.772;9.154;2023-07-20T14:39:45;617.03;;;567.83;;
9900;SDS011;4989;48.772;9.154;2023-07-20T14:45:17;683.23;;;637.87;;
9900;SDS011;4989;48.772;9.154;2023-07-20T14:50:19;643.47;;;600.20;;
9900;SDS011;4989;48.772;9.154;2023-07-20T14:55:25;615.40;;;573.50;;
9900;SDS011;4989;48.772;9.154;2023-07-20T15:00:27;609.77;;;567.83;;
9900;SDS011;4989;48.772;9.154;2023-07-20T15:05:35;640.10;;;596.53;;
9900;SDS011;4989;48.772;9.154;2023-07-20T15:10:39;665.67;;;621.00;;
9900;SDS011;4989;48.772;9.154;2023-07-20T15:15:58;614.23;;;571.60;;
9900;SDS011;4989;48.772;9.154;2023-07-20T15:21:03;663.37;;;607.70;;
9900;SDS011;4989;48.772;9.154;2023-07-20T15:26:06;656.03;;;610.30;;
9900;SDS011;4989;48.772;9.154;2023-07-20T15:31:11;668.67;;;622.97;;
9900;SDS011;4989;48.772;9.154;2023-07-20T15:36:44;650.27;;;605.23;;
9900;SDS011;4989;48.772;9.154;2023-07-20T15:41:47;681.63;;;636.40;;
9900;SDS011;4989;48.772;9.154;2023-07-20T15:47:15;672.23;;;627.23;;
9900;SDS011;4989;48.772;9.154;2023-07-20T15:52:29;617.43;;;571.60;;
9900;SDS011;4989;48.772;9.154;2023-07-20T15:57:32;606.30;;;564.23;;
9900;SDS011;4989;48.772;9.154;2023-07-20T16:08:21;581.87;;;540.93;;
9900;SDS011;4989;48.772;9.154;2023-07-20T16:13:24;652.90;;;569.23;;
9900;SDS011;4989;48.772;9.154;2023-07-20T16:18:28;577.47;;;537.07;;
9900;SDS011;4989;48.772;9.154;2023-07-20T16:23:31;588.47;;;547.30;;
9900;SDS011;4989;48.772;9.154;2023-07-20T16:28:35;634.00;;;587.47;;
9900;SDS011;4989;48.772;9.154;2023-07-20T16:33:43;638.90;;;595.07;;
9900;SDS011;4989;48.772;9.154;2023-07-20T16:38:53;569.33;;;529.43;;
9900;SDS011;4989;48.772;9.154;2023-07-20T16:49:46;633.47;;;588.97;;
9900;SDS011;4989;48.772;9.154;2023-07-20T16:54:58;563.57;;;523.40;;
9900;SDS011;4989;48.772;9.154;2023-07-20T17:00:02;599.83;;;558.23;;
9900;SDS011;4989;48.772;9.154;2023-07-20T17:05:11;636.87;;;593.33;;
9900;SDS011;4989;48.772;9.154;2023-07-20T17:10:16;647.77;;;603.37;;
9900;SDS011;4989;48.772;9.154;2023-07-20T17:15:18;649.93;;;606.23;;
9900;SDS011;4989;48.772;9.154;2023-07-20T17:20:23;563.23;;;523.17;;
9900;SDS011;4989;48.772;9.154;2023-07-20T17:25:33;588.17;;;546.77;;
9900;SDS011;4989;48.772;9.154;2023-07-20T17:31:00;564.83;;;524.83;;
9900;SDS011;4989;48.772;9.154;2023-07-20T17:36:07;633.80;;;590.10;;
9900;SDS011;4989;48.772;9.154;2023-07-20T17:41:18;640.67;;;597.07;;
9900;SDS011;4989;48.772;9.154;2023-07-20T17:46:23;552.27;;;512.63;;
9900;SDS011;4989;48.772;9.154;2023-07-20T17:51:31;572.27;;;532.00;;
9900;SDS011;4989;48.772;9.154;2023-07-20T17:56:47;657.00;;;612.90;;
9900;SDS011;4989;48.772;9.154;2023-07-20T18:02:12;644.97;;;600.93;;
9900;SDS011;4989;48.772;9.154;2023-07-20T18:07:20;583.97;;;543.47;;
9900;SDS011;4989;48.772;9.154;2023-07-20T18:12:23;557.73;;;518.23;;
9900;SDS011;4989;48.772;9.154;2023-07-20T18:17:32;578.07;;;537.23;;
9900;SDS011;4989;48.772;9.154;2023-07-20T18:22:39;622.97;;;579.70;;
9900;SDS011;4989;48.772;9.154;2023-07-20T18:27:48;650.93;;;607.13;;
9900;SDS011;4989;48.772;9.154;2023-07-20T18:32:50;598.70;;;556.97;;
9900;SDS011;4989;48.772;9.154;2023-07-20T18:37:52;587.57;;;546.97;;
9900;SDS011;4989;48.772;9.154;2023-07-20T18:42:58;574.90;;;534.93;;
9900;SDS011;4989;48.772;9.154;2023-07-20T18:48:03;602.90;;;561.33;;
9900;SDS011;4989;48.772;9.154;2023-07-20T18:53:06;957.70;;;680.40;;
9900;SDS011;4989;48.772;9.154;2023-07-20T18:58:19;661.53;;;617.23;;
9900;SDS011;4989;48.772;9.154;2023-07-20T19:03:23;568.77;;;528.63;;
9900;SDS011;4989;48.772;9.154;2023-07-20T19:08:26;572.03;;;531.80;;
9900;SDS011;4989;48.772;9.154;2023-07-20T19:13:33;603.70;;;561.83;;
9900;SDS011;4989;48.772;9.154;2023-07-20T19:18:36;634.67;;;591.33;;
9900;SDS011;4989;48.772;9.154;2023-07-20T19:23:47;650.00;;;606.27;;
9900;SDS011;4989;48.772;9.154;2023-07-20T19:28:49;605.03;;;563.33;;
9900;SDS011;4989;48.772;9.154;2023-07-20T19:33:56;561.37;;;521.77;;
9900;SDS011;4989;48.772;9.154;2023-07-20T19:39:01;558.70;;;518.83;;
9900;SDS011;4989;48.772;9.154;2023-07-20T19:44:05;599.87;;;557.40;;
9900;SDS011;4989;48.772;9.154;2023-07-20T19:49:11;604.20;;;561.00;;
9900;SDS011;4989;48.772;9.154;2023-07-20T20:00:07;599.80;;;556.83;;
9900;SDS011;4989;48.772;9.154;2023-07-20T20:05:24;533.27;;;493.97;;
9900;SDS011;4989;48.772;9.154;2023-07-20T20:10:28;540.10;;;499.93;;
9900;SDS011;4989;48.772;9.154;2023-07-20T20:15:53;535.03;;;495.50;;
9900;SDS011;4989;48.772;9.154;2023-07-20T20:20:57;535.63;;;496.30;;
9900;SDS011;4989;48.772;9.154;2023-07-20T20:26:01;541.47;;;501.87;;
9900;SDS011;4989;48.772;9.154;2023-07-20T20:31:08;593.87;;;551.47;;
9900;SDS011;4989;48.772;9.154;2023-07-20T20:36:10;592.90;;;550.30;;
9900;SDS011;4989;48.772;9.154;2023-07-20T20:41:12;596.30;;;553.63;;
9900;SDS011;4989;48.772;9.154;2023-07-20T20:46:16;594.80;;;552.07;;
9900;SDS011;4989;48.772;9.154;2023-07-20T20:51:22;535.77;;;496.27;;
9900;SDS011;4989;48.772;9.154;2023-07-20T20:56:25;506.00;;;467.27;;
9900;SDS011;4989;48.772;9.154;2023-07-20T21:01:43;603.03;;;559.87;;
9900;SDS011;4989;48.772;9.154;2023-07-20T21:06:48;598.63;;;555.97;;
9900;SDS011;4989;48.772;9.154;2023-07-20T21:11:52;510.07;;;471.37;;
9900;SDS011;4989;48.772;9.154;2023-07-20T21:16:56;517.17;;;477.50;;
9900;SDS011;4989;48.772;9.154;2023-07-20T21:21:59;506.60;;;467.80;;
9900;SDS011;4989;48.772;9.154;2023-07-20T21:27:02;495.83;;;457.23;;
9900;SDS011;4989;48.772;9.154;2023-07-20T21:32:04;541.27;;;500.50;;
9900;SDS011;4989;48.772;9.154;2023-07-20T21:37:08;567.60;;;525.13;;
9900;SDS011;4989;48.772;9.154;2023-07-20T21:42:10;590.17;;;547.60;;
9900;SDS011;4989;48.772;9.154;2023-07-20T21:47:13;577.47;;;535.10;;
9900;SDS011;4989;48.772;9.154;2023-07-20T21:52:15;570.77;;;528.30;;
9900;SDS011;4989;48.772;9.154;2023-07-20T21:57:18;578.87;;;536.27;;
9900;SDS011;4989;48.772;9.154;2023-07-20T22:02:20;546.20;;;505.53;;
9900;SDS011;4989;48.772;9.154;2023-07-20T22:07:23;492.97;;;454.57;;
9900;SDS011;4989;48.772;9.154;2023-07-20T22:12:25;489.60;;;450.53;;
9900;SDS011;4989;48.772;9.154;2023-07-20T22:17:27;493.43;;;454.87;;
9900;SDS011;4989;48.772;9.154;2023-07-20T22:22:30;495.33;;;456.83;;
9900;SDS011;4989;48.772;9.154;2023-07-20T22:27:32;493.13;;;454.60;;
9900;SDS011;4989;48.772;9.154;2023-07-20T22:32:35;528.13;;;487.67;;
9900;SDS011;4989;48.772;9.154;2023-07-20T22:37:38;551.07;;;509.10;;
9900;SDS011;4989;48.772;9.154;2023-07-20T22:42:40;557.43;;;515.33;;
9900;SDS011;4989;48.772;9.154;2023-07-20T22:47:43;576.10;;;533.73;;
9900;SDS011;4989;48.772;9.154;2023-07-20T22:52:48;579.50;;;536.73;;
9900;SDS011;4989;48.772;9.154;2023-07-20T22:57:50;524.90;;;484.40;;
9900;SDS011;4989;48.772;9.154;2023-07-20T23:02:54;473.30;;;434.80;;
9900;SDS011;4989;48.772;9.154;2023-07-20T23:07:57;447.50;;;409.90;;
9900;SDS011;4989;48.772;9.154;2023-07-20T23:13:00;475.73;;;437.43;;
9900;SDS011;4989;48.772;9.154;2023-07-20T23:18:04;497.43;;;457.53;;
9900;SDS011;4989;48.772;9.154;2023-07-20T23:23:07;513.77;;;472.57;;
9900;SDS011;4989;48.772;9.154;2023-07-20T23:28:10;517.37;;;475.80;;
9900;SDS011;4989;48.772;9.154;2023-07-20T23:33:12;518.30;;;477.03;;
9900;SDS011;4989;48.772;9.154;2023-07-20T23:38:15;514.30;;;472.90;;
9900;SDS011;4989;48.772;9.154;2023-07-20T23:43:18;528.83;;;487.00;;
9900;SDS011;4989;48.772;9.154;2023-07-20T23:48:20;472.73;;;433.10;;
9900;SDS011;4989;48.772;9.154;2023-07-20T23:53:25;424.53;;;387.27;;
9900;SDS011;4989;48.772;9.154;2023-07-20T23:58:27;430.03;;;392.67;;
